sensor_id;sensor_type;location;lat;lon;timestamp;P1;durP1;ratioP1;P2;durP2;ratioP2
55222;SDS011;41090;48.632;12.428;2023-03-23T00:01:48;6.67;;;4.97;;
55222;SDS011;41090;48.632;12.428;2023-03-23T00:04:17;5.53;;;4.80;;
55222;SDS011;41090;48.632;12.428;2023-03-23T00:06:44;6.67;;;4.83;;
55222;SDS011;41090;48.632;12.428;2023-03-23T00:09:11;7.27;;;4.90;;
55222;SDS011;41090;48.632;12.428;2023-03-23T00:11:37;6.47;;;5.20;;
55222;SDS011;41090;48.632;12.428;2023-03-23T00:14:04;6.47;;;4.63;;
55222;SDS011;41090;48.632;12.428;2023-03-23T00:16:33;6.70;;;5.20;;
55222;SDS011;41090;48.632;12.428;2023-03-23T00:19:03;8.60;;;5.43;;
55222;SDS011;41090;48.632;12.428;2023-03-23T00:21:29;5.97;;;5.30;;
55222;SDS011;41090;48.632;12.428;2023-03-23T00:24:01;6.97;;;5.70;;
55222;SDS011;41090;48.632;12.428;2023-03-23T00:26:28;8.20;;;5.57;;
55222;SDS011;41090;48.632;12.428;2023-03-23T00:29:15;8.80;;;5.20;;
55222;SDS011;41090;48.632;12.428;2023-03-23T00:31:41;6.53;;;4.97;;
55222;SDS011;41090;48.632;12.428;2023-03-23T00:34:11;6.27;;;5.23;;
55222;SDS011;41090;48.632;12.428;2023-03-23T00:36:37;7.27;;;5.13;;
55222;SDS011;41090;48.632;12.428;2023-03-23T00:39:08;8.60;;;5.30;;
55222;SDS011;41090;48.632;12.428;2023-03-23T00:41:34;6.97;;;5.27;;
55222;SDS011;41090;48.632;12.428;2023-03-23T00:44:01;8.53;;;5.10;;
55222;SDS011;41090;48.632;12.428;2023-03-23T00:46:27;9.90;;;5.43;;
55222;SDS011;41090;48.632;12.428;2023-03-23T00:48:53;5.93;;;5.03;;
55222;SDS011;41090;48.632;12.428;2023-03-23T00:51:18;6.13;;;5.17;;
55222;SDS011;41090;48.632;12.428;2023-03-23T00:53:44;7.77;;;5.40;;
55222;SDS011;41090;48.632;12.428;2023-03-23T00:56:10;5.43;;;4.90;;
55222;SDS011;41090;48.632;12.428;2023-03-23T00:58:35;5.83;;;5.20;;
55222;SDS011;41090;48.632;12.428;2023-03-23T01:01:02;5.97;;;5.00;;
55222;SDS011;41090;48.632;12.428;2023-03-23T01:03:27;7.57;;;6.20;;
55222;SDS011;41090;48.632;12.428;2023-03-23T01:05:53;10.23;;;6.10;;
55222;SDS011;41090;48.632;12.428;2023-03-23T01:08:19;7.03;;;6.00;;
55222;SDS011;41090;48.632;12.428;2023-03-23T01:10:46;7.53;;;6.40;;
55222;SDS011;41090;48.632;12.428;2023-03-23T01:13:12;9.07;;;6.30;;
55222;SDS011;41090;48.632;12.428;2023-03-23T01:15:37;8.00;;;6.50;;
55222;SDS011;41090;48.632;12.428;2023-03-23T01:18:03;6.20;;;5.60;;
55222;SDS011;41090;48.632;12.428;2023-03-23T01:20:28;9.37;;;6.20;;
55222;SDS011;41090;48.632;12.428;2023-03-23T01:22:59;7.27;;;5.50;;
55222;SDS011;41090;48.632;12.428;2023-03-23T01:25:28;7.03;;;5.30;;
55222;SDS011;41090;48.632;12.428;2023-03-23T01:27:53;6.27;;;5.30;;
55222;SDS011;41090;48.632;12.428;2023-03-23T01:30:19;6.70;;;5.30;;
55222;SDS011;41090;48.632;12.428;2023-03-23T01:32:44;6.57;;;5.03;;
55222;SDS011;41090;48.632;12.428;2023-03-23T01:35:11;6.50;;;5.23;;
55222;SDS011;41090;48.632;12.428;2023-03-23T01:37:37;5.80;;;5.20;;
55222;SDS011;41090;48.632;12.428;2023-03-23T01:40:02;4.97;;;4.40;;
55222;SDS011;41090;48.632;12.428;2023-03-23T01:42:40;7.33;;;4.80;;
55222;SDS011;41090;48.632;12.428;2023-03-23T01:45:23;5.73;;;4.87;;
55222;SDS011;41090;48.632;12.428;2023-03-23T01:47:49;6.70;;;5.00;;
55222;SDS011;41090;48.632;12.428;2023-03-23T01:50:16;5.83;;;4.43;;
55222;SDS011;41090;48.632;12.428;2023-03-23T01:52:41;10.30;;;5.00;;
55222;SDS011;41090;48.632;12.428;2023-03-23T01:55:07;5.20;;;4.70;;
55222;SDS011;41090;48.632;12.428;2023-03-23T01:57:32;6.13;;;5.13;;
55222;SDS011;41090;48.632;12.428;2023-03-23T01:59:59;5.50;;;5.00;;
55222;SDS011;41090;48.632;12.428;2023-03-23T02:02:26;6.43;;;5.73;;
55222;SDS011;41090;48.632;12.428;2023-03-23T02:04:52;5.73;;;5.10;;
55222;SDS011;41090;48.632;12.428;2023-03-23T02:07:20;8.10;;;5.50;;
55222;SDS011;41090;48.632;12.428;2023-03-23T02:09:46;6.10;;;5.50;;
55222;SDS011;41090;48.632;12.428;2023-03-23T02:12:11;6.13;;;5.53;;
55222;SDS011;41090;48.632;12.428;2023-03-23T02:14:37;6.90;;;5.57;;
55222;SDS011;41090;48.632;12.428;2023-03-23T02:27:14;5.97;;;5.37;;
55222;SDS011;41090;48.632;12.428;2023-03-23T02:34:57;6.20;;;5.60;;
55222;SDS011;41090;48.632;12.428;2023-03-23T02:37:26;6.73;;;5.60;;
55222;SDS011;41090;48.632;12.428;2023-03-23T02:39:57;5.07;;;4.57;;
55222;SDS011;41090;48.632;12.428;2023-03-23T02:42:26;5.23;;;4.73;;
55222;SDS011;41090;48.632;12.428;2023-03-23T02:44:53;6.53;;;5.03;;
55222;SDS011;41090;48.632;12.428;2023-03-23T02:47:24;5.87;;;4.63;;
55222;SDS011;41090;48.632;12.428;2023-03-23T02:49:51;6.60;;;5.33;;
55222;SDS011;41090;48.632;12.428;2023-03-23T02:52:19;5.80;;;5.17;;
55222;SDS011;41090;48.632;12.428;2023-03-23T02:54:46;6.37;;;5.17;;
55222;SDS011;41090;48.632;12.428;2023-03-23T02:57:12;5.37;;;4.87;;
55222;SDS011;41090;48.632;12.428;2023-03-23T02:59:38;5.83;;;5.23;;
55222;SDS011;41090;48.632;12.428;2023-03-23T03:02:05;5.93;;;5.33;;
55222;SDS011;41090;48.632;12.428;2023-03-23T03:04:32;6.90;;;5.87;;
55222;SDS011;41090;48.632;12.428;2023-03-23T03:12:05;5.27;;;4.60;;
55222;SDS011;41090;48.632;12.428;2023-03-23T03:14:44;5.37;;;4.80;;
55222;SDS011;41090;48.632;12.428;2023-03-23T03:17:17;6.40;;;4.90;;
55222;SDS011;41090;48.632;12.428;2023-03-23T03:19:45;8.70;;;5.30;;
55222;SDS011;41090;48.632;12.428;2023-03-23T03:24:45;6.47;;;5.23;;
55222;SDS011;41090;48.632;12.428;2023-03-23T03:27:13;5.93;;;5.10;;
55222;SDS011;41090;48.632;12.428;2023-03-23T03:30:00;6.90;;;5.57;;
55222;SDS011;41090;48.632;12.428;2023-03-23T03:32:30;5.17;;;4.57;;
55222;SDS011;41090;48.632;12.428;2023-03-23T03:35:00;7.77;;;5.53;;
55222;SDS011;41090;48.632;12.428;2023-03-23T03:37:25;5.90;;;4.93;;
55222;SDS011;41090;48.632;12.428;2023-03-23T03:39:51;5.47;;;4.97;;
55222;SDS011;41090;48.632;12.428;2023-03-23T03:42:16;5.83;;;5.17;;
55222;SDS011;41090;48.632;12.428;2023-03-23T03:44:42;8.17;;;5.50;;
55222;SDS011;41090;48.632;12.428;2023-03-23T03:47:09;7.77;;;5.33;;
55222;SDS011;41090;48.632;12.428;2023-03-23T03:49:35;8.37;;;5.63;;
55222;SDS011;41090;48.632;12.428;2023-03-23T03:52:00;11.00;;;5.50;;
55222;SDS011;41090;48.632;12.428;2023-03-23T03:54:25;6.40;;;5.40;;
55222;SDS011;41090;48.632;12.428;2023-03-23T03:56:52;6.43;;;5.50;;
55222;SDS011;41090;48.632;12.428;2023-03-23T03:59:22;5.63;;;5.03;;
55222;SDS011;41090;48.632;12.428;2023-03-23T04:01:47;6.27;;;5.30;;
55222;SDS011;41090;48.632;12.428;2023-03-23T04:04:18;5.50;;;4.93;;
55222;SDS011;41090;48.632;12.428;2023-03-23T04:06:44;7.67;;;5.83;;
55222;SDS011;41090;48.632;12.428;2023-03-23T04:09:10;6.70;;;5.30;;
55222;SDS011;41090;48.632;12.428;2023-03-23T04:11:35;7.37;;;5.90;;
55222;SDS011;41090;48.632;12.428;2023-03-23T04:14:01;6.60;;;5.37;;
55222;SDS011;41090;48.632;12.428;2023-03-23T04:16:31;6.87;;;5.17;;
55222;SDS011;41090;48.632;12.428;2023-03-23T04:18:59;5.50;;;4.90;;
55222;SDS011;41090;48.632;12.428;2023-03-23T04:21:25;5.17;;;4.67;;
55222;SDS011;41090;48.632;12.428;2023-03-23T04:23:54;5.20;;;4.70;;
55222;SDS011;41090;48.632;12.428;2023-03-23T04:26:21;6.23;;;5.57;;
55222;SDS011;41090;48.632;12.428;2023-03-23T04:28:46;5.93;;;5.33;;
55222;SDS011;41090;48.632;12.428;2023-03-23T04:31:12;7.00;;;5.37;;
55222;SDS011;41090;48.632;12.428;2023-03-23T04:33:37;7.37;;;5.50;;
55222;SDS011;41090;48.632;12.428;2023-03-23T04:36:05;6.83;;;4.90;;
55222;SDS011;41090;48.632;12.428;2023-03-23T04:38:32;8.83;;;5.33;;
55222;SDS011;41090;48.632;12.428;2023-03-23T04:40:59;7.43;;;5.90;;
55222;SDS011;41090;48.632;12.428;2023-03-23T04:43:26;6.63;;;5.87;;
55222;SDS011;41090;48.632;12.428;2023-03-23T04:45:52;6.23;;;5.63;;
55222;SDS011;41090;48.632;12.428;2023-03-23T04:48:20;6.70;;;5.50;;
55222;SDS011;41090;48.632;12.428;2023-03-23T04:50:47;6.30;;;5.40;;
55222;SDS011;41090;48.632;12.428;2023-03-23T04:53:13;5.30;;;4.80;;
55222;SDS011;41090;48.632;12.428;2023-03-23T04:55:39;6.57;;;5.67;;
55222;SDS011;41090;48.632;12.428;2023-03-23T04:58:06;5.27;;;4.77;;
55222;SDS011;41090;48.632;12.428;2023-03-23T05:00:32;8.07;;;5.27;;
55222;SDS011;41090;48.632;12.428;2023-03-23T05:02:57;6.07;;;5.47;;
55222;SDS011;41090;48.632;12.428;2023-03-23T05:05:22;6.80;;;5.23;;
55222;SDS011;41090;48.632;12.428;2023-03-23T05:07:48;5.93;;;5.27;;
55222;SDS011;41090;48.632;12.428;2023-03-23T05:10:14;6.93;;;6.20;;
55222;SDS011;41090;48.632;12.428;2023-03-23T05:12:40;6.50;;;5.90;;
55222;SDS011;41090;48.632;12.428;2023-03-23T05:15:05;8.37;;;6.13;;
55222;SDS011;41090;48.632;12.428;2023-03-23T05:17:31;6.73;;;5.97;;
55222;SDS011;41090;48.632;12.428;2023-03-23T05:19:57;6.00;;;5.27;;
55222;SDS011;41090;48.632;12.428;2023-03-23T05:22:23;5.87;;;4.87;;
55222;SDS011;41090;48.632;12.428;2023-03-23T05:24:51;5.63;;;5.03;;
55222;SDS011;41090;48.632;12.428;2023-03-23T05:27:16;6.17;;;5.27;;
55222;SDS011;41090;48.632;12.428;2023-03-23T05:29:43;7.73;;;5.70;;
55222;SDS011;41090;48.632;12.428;2023-03-23T05:32:11;6.93;;;5.70;;
55222;SDS011;41090;48.632;12.428;2023-03-23T05:34:36;7.03;;;5.53;;
55222;SDS011;41090;48.632;12.428;2023-03-23T05:37:02;8.57;;;6.20;;
55222;SDS011;41090;48.632;12.428;2023-03-23T05:39:28;6.63;;;5.90;;
55222;SDS011;41090;48.632;12.428;2023-03-23T05:42:02;6.83;;;5.93;;
55222;SDS011;41090;48.632;12.428;2023-03-23T05:44:27;6.37;;;5.57;;
55222;SDS011;41090;48.632;12.428;2023-03-23T05:46:52;7.30;;;6.20;;
55222;SDS011;41090;48.632;12.428;2023-03-23T05:49:18;6.93;;;5.70;;
55222;SDS011;41090;48.632;12.428;2023-03-23T05:51:43;5.80;;;5.20;;
55222;SDS011;41090;48.632;12.428;2023-03-23T05:54:09;6.10;;;5.50;;
55222;SDS011;41090;48.632;12.428;2023-03-23T05:56:36;6.60;;;5.17;;
55222;SDS011;41090;48.632;12.428;2023-03-23T05:59:01;7.70;;;5.80;;
55222;SDS011;41090;48.632;12.428;2023-03-23T06:01:27;6.93;;;6.17;;
55222;SDS011;41090;48.632;12.428;2023-03-23T06:03:56;8.30;;;6.70;;
55222;SDS011;41090;48.632;12.428;2023-03-23T06:06:23;9.87;;;6.93;;
55222;SDS011;41090;48.632;12.428;2023-03-23T06:08:49;9.97;;;7.40;;
55222;SDS011;41090;48.632;12.428;2023-03-23T06:11:15;9.30;;;6.67;;
55222;SDS011;41090;48.632;12.428;2023-03-23T06:13:40;10.47;;;6.73;;
55222;SDS011;41090;48.632;12.428;2023-03-23T06:16:06;7.77;;;6.17;;
55222;SDS011;41090;48.632;12.428;2023-03-23T06:18:32;7.27;;;6.47;;
55222;SDS011;41090;48.632;12.428;2023-03-23T06:20:59;9.43;;;6.50;;
55222;SDS011;41090;48.632;12.428;2023-03-23T06:23:25;6.50;;;5.90;;
55222;SDS011;41090;48.632;12.428;2023-03-23T06:25:53;7.07;;;6.37;;
55222;SDS011;41090;48.632;12.428;2023-03-23T06:28:18;7.20;;;6.50;;
55222;SDS011;41090;48.632;12.428;2023-03-23T06:30:43;8.70;;;6.57;;
55222;SDS011;41090;48.632;12.428;2023-03-23T06:33:08;8.00;;;7.17;;
55222;SDS011;41090;48.632;12.428;2023-03-23T06:35:34;9.13;;;7.40;;
55222;SDS011;41090;48.632;12.428;2023-03-23T06:38:00;8.43;;;7.37;;
55222;SDS011;41090;48.632;12.428;2023-03-23T06:40:27;8.60;;;7.17;;
55222;SDS011;41090;48.632;12.428;2023-03-23T06:42:53;8.10;;;7.10;;
55222;SDS011;41090;48.632;12.428;2023-03-23T06:45:18;13.77;;;7.40;;
55222;SDS011;41090;48.632;12.428;2023-03-23T06:47:44;7.70;;;6.90;;
55222;SDS011;41090;48.632;12.428;2023-03-23T06:50:10;10.37;;;7.50;;
55222;SDS011;41090;48.632;12.428;2023-03-23T06:52:35;8.27;;;7.33;;
55222;SDS011;41090;48.632;12.428;2023-03-23T06:57:29;11.13;;;8.57;;
55222;SDS011;41090;48.632;12.428;2023-03-23T06:59:54;13.07;;;9.30;;
55222;SDS011;41090;48.632;12.428;2023-03-23T07:02:20;14.80;;;10.70;;
55222;SDS011;41090;48.632;12.428;2023-03-23T07:04:45;10.57;;;8.70;;
55222;SDS011;41090;48.632;12.428;2023-03-23T07:07:11;8.43;;;7.43;;
55222;SDS011;41090;48.632;12.428;2023-03-23T07:09:39;8.23;;;6.77;;
55222;SDS011;41090;48.632;12.428;2023-03-23T07:12:05;7.77;;;6.97;;
55222;SDS011;41090;48.632;12.428;2023-03-23T07:14:32;7.87;;;6.87;;
55222;SDS011;41090;48.632;12.428;2023-03-23T07:16:57;7.90;;;7.10;;
55222;SDS011;41090;48.632;12.428;2023-03-23T07:19:22;8.70;;;5.53;;
55222;SDS011;41090;48.632;12.428;2023-03-23T07:21:48;6.60;;;5.87;;
55222;SDS011;41090;48.632;12.428;2023-03-23T07:24:14;6.20;;;5.60;;
55222;SDS011;41090;48.632;12.428;2023-03-23T07:26:42;5.80;;;5.20;;
55222;SDS011;41090;48.632;12.428;2023-03-23T07:29:08;5.23;;;4.73;;
55222;SDS011;41090;48.632;12.428;2023-03-23T07:31:33;4.97;;;4.47;;
55222;SDS011;41090;48.632;12.428;2023-03-23T07:33:58;6.03;;;5.40;;
55222;SDS011;41090;48.632;12.428;2023-03-23T07:36:24;6.10;;;5.20;;
55222;SDS011;41090;48.632;12.428;2023-03-23T07:38:51;6.07;;;5.57;;
55222;SDS011;41090;48.632;12.428;2023-03-23T07:41:16;7.40;;;5.90;;
55222;SDS011;41090;48.632;12.428;2023-03-23T07:43:41;7.93;;;5.73;;
55222;SDS011;41090;48.632;12.428;2023-03-23T07:46:06;6.13;;;5.37;;
55222;SDS011;41090;48.632;12.428;2023-03-23T07:48:31;7.43;;;5.40;;
55222;SDS011;41090;48.632;12.428;2023-03-23T07:50:58;8.23;;;5.73;;
55222;SDS011;41090;48.632;12.428;2023-03-23T07:53:24;6.73;;;5.90;;
55222;SDS011;41090;48.632;12.428;2023-03-23T07:55:49;6.50;;;5.90;;
55222;SDS011;41090;48.632;12.428;2023-03-23T07:58:14;6.00;;;5.40;;
55222;SDS011;41090;48.632;12.428;2023-03-23T08:00:43;5.93;;;5.33;;
55222;SDS011;41090;48.632;12.428;2023-03-23T08:03:09;6.20;;;5.13;;
55222;SDS011;41090;48.632;12.428;2023-03-23T08:05:35;5.97;;;5.43;;
55222;SDS011;41090;48.632;12.428;2023-03-23T08:08:00;5.77;;;4.77;;
55222;SDS011;41090;48.632;12.428;2023-03-23T08:10:26;5.77;;;5.17;;
55222;SDS011;41090;48.632;12.428;2023-03-23T08:12:52;6.17;;;5.40;;
55222;SDS011;41090;48.632;12.428;2023-03-23T08:15:18;5.93;;;4.53;;
55222;SDS011;41090;48.632;12.428;2023-03-23T08:17:44;5.60;;;5.07;;
55222;SDS011;41090;48.632;12.428;2023-03-23T08:20:10;5.97;;;4.93;;
55222;SDS011;41090;48.632;12.428;2023-03-23T08:22:41;5.63;;;4.70;;
55222;SDS011;41090;48.632;12.428;2023-03-23T08:25:08;5.60;;;4.87;;
55222;SDS011;41090;48.632;12.428;2023-03-23T08:27:34;5.83;;;4.93;;
55222;SDS011;41090;48.632;12.428;2023-03-23T08:32:33;6.43;;;5.13;;
55222;SDS011;41090;48.632;12.428;2023-03-23T08:34:59;5.10;;;4.60;;
55222;SDS011;41090;48.632;12.428;2023-03-23T08:37:25;4.97;;;4.50;;
55222;SDS011;41090;48.632;12.428;2023-03-23T08:39:51;6.27;;;5.13;;
55222;SDS011;41090;48.632;12.428;2023-03-23T08:42:17;6.10;;;5.00;;
55222;SDS011;41090;48.632;12.428;2023-03-23T08:44:43;7.00;;;4.90;;
55222;SDS011;41090;48.632;12.428;2023-03-23T08:47:08;7.03;;;5.10;;
55222;SDS011;41090;48.632;12.428;2023-03-23T08:52:19;5.20;;;4.17;;
55222;SDS011;41090;48.632;12.428;2023-03-23T08:54:44;5.43;;;4.93;;
55222;SDS011;41090;48.632;12.428;2023-03-23T08:59:54;4.60;;;4.20;;
55222;SDS011;41090;48.632;12.428;2023-03-23T09:04:53;5.17;;;4.60;;
55222;SDS011;41090;48.632;12.428;2023-03-23T09:07:18;5.17;;;4.27;;
55222;SDS011;41090;48.632;12.428;2023-03-23T09:09:43;5.30;;;4.57;;
55222;SDS011;41090;48.632;12.428;2023-03-23T09:12:10;7.27;;;4.93;;
55222;SDS011;41090;48.632;12.428;2023-03-23T09:14:38;5.03;;;4.53;;
55222;SDS011;41090;48.632;12.428;2023-03-23T09:17:04;5.37;;;4.87;;
55222;SDS011;41090;48.632;12.428;2023-03-23T09:19:32;5.20;;;4.43;;
55222;SDS011;41090;48.632;12.428;2023-03-23T09:21:58;4.90;;;4.40;;
55222;SDS011;41090;48.632;12.428;2023-03-23T09:24:23;5.00;;;4.50;;
55222;SDS011;41090;48.632;12.428;2023-03-23T09:26:49;4.97;;;4.20;;
55222;SDS011;41090;48.632;12.428;2023-03-23T09:29:14;5.83;;;4.23;;
55222;SDS011;41090;48.632;12.428;2023-03-23T09:31:40;5.67;;;4.40;;
55222;SDS011;41090;48.632;12.428;2023-03-23T09:36:35;6.63;;;4.93;;
55222;SDS011;41090;48.632;12.428;2023-03-23T09:39:01;4.83;;;4.20;;
55222;SDS011;41090;48.632;12.428;2023-03-23T09:50:13;6.97;;;4.47;;
55222;SDS011;41090;48.632;12.428;2023-03-23T09:52:18;5.67;;;4.10;;
55222;SDS011;41090;48.632;12.428;2023-03-23T09:54:46;4.17;;;3.60;;
55222;SDS011;41090;48.632;12.428;2023-03-23T09:57:14;5.20;;;4.43;;
55222;SDS011;41090;48.632;12.428;2023-03-23T09:59:44;4.40;;;4.00;;
55222;SDS011;41090;48.632;12.428;2023-03-23T10:02:17;5.23;;;3.97;;
55222;SDS011;41090;48.632;12.428;2023-03-23T10:04:47;4.57;;;3.70;;
55222;SDS011;41090;48.632;12.428;2023-03-23T10:07:15;5.22;;;3.63;;
55222;SDS011;41090;48.632;12.428;2023-03-23T10:09:42;4.80;;;3.53;;
55222;SDS011;41090;48.632;12.428;2023-03-23T10:14:54;3.40;;;3.10;;
55222;SDS011;41090;48.632;12.428;2023-03-23T10:17:30;3.75;;;3.28;;
55222;SDS011;41090;48.632;12.428;2023-03-23T10:20:21;4.15;;;2.83;;
55222;SDS011;41090;48.632;12.428;2023-03-23T10:23:00;3.38;;;2.42;;
55222;SDS011;41090;48.632;12.428;2023-03-23T10:25:31;3.38;;;2.45;;
55222;SDS011;41090;48.632;12.428;2023-03-23T10:28:03;3.13;;;2.50;;
55222;SDS011;41090;48.632;12.428;2023-03-23T10:30:51;4.20;;;2.78;;
55222;SDS011;41090;48.632;12.428;2023-03-23T10:33:20;4.25;;;2.97;;
55222;SDS011;41090;48.632;12.428;2023-03-23T10:35:51;3.15;;;2.58;;
55222;SDS011;41090;48.632;12.428;2023-03-23T10:39:19;3.30;;;2.43;;
55222;SDS011;41090;48.632;12.428;2023-03-23T10:41:14;3.13;;;2.37;;
55222;SDS011;41090;48.632;12.428;2023-03-23T10:43:43;3.40;;;2.47;;
55222;SDS011;41090;48.632;12.428;2023-03-23T10:48:38;2.60;;;2.40;;
55222;SDS011;41090;48.632;12.428;2023-03-23T10:51:05;2.77;;;2.30;;
55222;SDS011;41090;48.632;12.428;2023-03-23T10:53:35;3.50;;;2.37;;
55222;SDS011;41090;48.632;12.428;2023-03-23T10:56:01;2.73;;;2.30;;
55222;SDS011;41090;48.632;12.428;2023-03-23T10:58:27;5.57;;;2.30;;
55222;SDS011;41090;48.632;12.428;2023-03-23T11:00:54;2.70;;;2.50;;
55222;SDS011;41090;48.632;12.428;2023-03-23T11:03:24;3.13;;;2.43;;
55222;SDS011;41090;48.632;12.428;2023-03-23T11:06:05;3.83;;;2.17;;
55222;SDS011;41090;48.632;12.428;2023-03-23T11:08:32;3.10;;;2.13;;
55222;SDS011;41090;48.632;12.428;2023-03-23T11:11:14;2.33;;;2.13;;
55222;SDS011;41090;48.632;12.428;2023-03-23T11:13:48;2.28;;;2.00;;
55222;SDS011;41090;48.632;12.428;2023-03-23T11:16:23;3.15;;;2.15;;
55222;SDS011;41090;48.632;12.428;2023-03-23T11:18:49;3.33;;;2.25;;
55222;SDS011;41090;48.632;12.428;2023-03-23T11:21:14;2.80;;;2.10;;
55222;SDS011;41090;48.632;12.428;2023-03-23T11:23:40;2.83;;;2.40;;
55222;SDS011;41090;48.632;12.428;2023-03-23T11:28:36;3.23;;;2.40;;
55222;SDS011;41090;48.632;12.428;2023-03-23T11:31:11;4.37;;;2.60;;
55222;SDS011;41090;48.632;12.428;2023-03-23T11:36:06;3.30;;;2.50;;
55222;SDS011;41090;48.632;12.428;2023-03-23T11:38:33;4.37;;;2.50;;
55222;SDS011;41090;48.632;12.428;2023-03-23T11:40:59;2.60;;;2.40;;
55222;SDS011;41090;48.632;12.428;2023-03-23T11:43:24;2.73;;;2.43;;
55222;SDS011;41090;48.632;12.428;2023-03-23T11:53:40;3.60;;;2.63;;
55222;SDS011;41090;48.632;12.428;2023-03-23T11:56:11;2.50;;;2.30;;
55222;SDS011;41090;48.632;12.428;2023-03-23T11:58:38;3.53;;;2.73;;
55222;SDS011;41090;48.632;12.428;2023-03-23T12:03:50;3.90;;;2.50;;
55222;SDS011;41090;48.632;12.428;2023-03-23T12:06:27;6.03;;;2.70;;
55222;SDS011;41090;48.632;12.428;2023-03-23T12:09:33;3.00;;;2.60;;
55222;SDS011;41090;48.632;12.428;2023-03-23T12:19:35;2.63;;;2.40;;
55222;SDS011;41090;48.632;12.428;2023-03-23T12:22:24;3.93;;;2.73;;
55222;SDS011;41090;48.632;12.428;2023-03-23T12:47:49;4.80;;;2.33;;
55222;SDS011;41090;48.632;12.428;2023-03-23T12:50:18;4.25;;;3.88;;
55222;SDS011;41090;48.632;12.428;2023-03-23T12:52:58;3.63;;;3.22;;
55222;SDS011;41090;48.632;12.428;2023-03-23T12:55:34;6.05;;;5.65;;
55222;SDS011;41090;48.632;12.428;2023-03-23T12:58:08;3.05;;;2.60;;
55222;SDS011;41090;48.632;12.428;2023-03-23T13:03:27;3.00;;;2.37;;
55222;SDS011;41090;48.632;12.428;2023-03-23T13:06:04;5.20;;;2.17;;
55222;SDS011;41090;48.632;12.428;2023-03-23T13:08:33;3.07;;;2.37;;
55222;SDS011;41090;48.632;12.428;2023-03-23T13:11:03;3.87;;;2.10;;
55222;SDS011;41090;48.632;12.428;2023-03-23T13:13:43;2.93;;;2.37;;
55222;SDS011;41090;48.632;12.428;2023-03-23T13:16:27;4.00;;;2.10;;
55222;SDS011;41090;48.632;12.428;2023-03-23T13:19:01;2.20;;;2.00;;
55222;SDS011;41090;48.632;12.428;2023-03-23T13:21:31;2.93;;;2.00;;
55222;SDS011;41090;48.632;12.428;2023-03-23T13:24:01;3.27;;;2.37;;
55222;SDS011;41090;48.632;12.428;2023-03-23T13:26:28;3.27;;;1.93;;
55222;SDS011;41090;48.632;12.428;2023-03-23T13:29:05;2.53;;;2.00;;
55222;SDS011;41090;48.632;12.428;2023-03-23T13:31:36;3.80;;;2.20;;
55222;SDS011;41090;48.632;12.428;2023-03-23T13:34:03;3.07;;;1.97;;
55222;SDS011;41090;48.632;12.428;2023-03-23T13:36:30;3.90;;;2.30;;
55222;SDS011;41090;48.632;12.428;2023-03-23T13:38:56;2.77;;;2.00;;
55222;SDS011;41090;48.632;12.428;2023-03-23T13:41:24;2.50;;;2.30;;
55222;SDS011;41090;48.632;12.428;2023-03-23T13:43:49;3.67;;;2.40;;
55222;SDS011;41090;48.632;12.428;2023-03-23T13:48:44;2.30;;;2.10;;
55222;SDS011;41090;48.632;12.428;2023-03-23T13:51:31;4.13;;;2.30;;
55222;SDS011;41090;48.632;12.428;2023-03-23T13:59:28;3.03;;;2.10;;
55222;SDS011;41090;48.632;12.428;2023-03-23T14:01:54;2.50;;;2.10;;
55222;SDS011;41090;48.632;12.428;2023-03-23T14:04:20;2.27;;;2.07;;
55222;SDS011;41090;48.632;12.428;2023-03-23T14:06:46;2.80;;;2.43;;
55222;SDS011;41090;48.632;12.428;2023-03-23T14:09:14;2.47;;;2.10;;
55222;SDS011;41090;48.632;12.428;2023-03-23T14:11:47;2.73;;;2.40;;
55222;SDS011;41090;48.632;12.428;2023-03-23T14:14:14;2.33;;;1.93;;
55222;SDS011;41090;48.632;12.428;2023-03-23T14:16:43;2.47;;;2.10;;
55222;SDS011;41090;48.632;12.428;2023-03-23T14:19:18;4.50;;;2.77;;
55222;SDS011;41090;48.632;12.428;2023-03-23T14:21:54;3.03;;;2.57;;
55222;SDS011;41090;48.632;12.428;2023-03-23T14:24:28;3.70;;;2.70;;
55222;SDS011;41090;48.632;12.428;2023-03-23T14:27:09;4.47;;;2.93;;
55222;SDS011;41090;48.632;12.428;2023-03-23T14:29:35;2.60;;;2.40;;
55222;SDS011;41090;48.632;12.428;2023-03-23T14:32:00;2.70;;;2.50;;
55222;SDS011;41090;48.632;12.428;2023-03-23T14:34:27;4.73;;;2.60;;
55222;SDS011;41090;48.632;12.428;2023-03-23T14:36:55;4.13;;;3.00;;
55222;SDS011;41090;48.632;12.428;2023-03-23T14:41:51;4.37;;;3.63;;
55222;SDS011;41090;48.632;12.428;2023-03-23T14:44:17;3.67;;;3.37;;
55222;SDS011;41090;48.632;12.428;2023-03-23T14:46:44;5.73;;;5.10;;
55222;SDS011;41090;48.632;12.428;2023-03-23T14:49:10;5.20;;;4.70;;
55222;SDS011;41090;48.632;12.428;2023-03-23T14:51:36;3.57;;;3.10;;
55222;SDS011;41090;48.632;12.428;2023-03-23T14:54:07;3.13;;;2.83;;
55222;SDS011;41090;48.632;12.428;2023-03-23T14:56:36;4.07;;;3.10;;
55222;SDS011;41090;48.632;12.428;2023-03-23T14:59:05;4.33;;;2.83;;
55222;SDS011;41090;48.632;12.428;2023-03-23T15:01:31;3.73;;;2.83;;
55222;SDS011;41090;48.632;12.428;2023-03-23T15:04:00;3.07;;;2.67;;
55222;SDS011;41090;48.632;12.428;2023-03-23T15:06:28;4.37;;;3.80;;
55222;SDS011;41090;48.632;12.428;2023-03-23T15:08:54;2.80;;;2.40;;
55222;SDS011;41090;48.632;12.428;2023-03-23T15:11:23;2.53;;;2.10;;
55222;SDS011;41090;48.632;12.428;2023-03-23T15:13:51;2.40;;;2.20;;
55222;SDS011;41090;48.632;12.428;2023-03-23T15:16:32;3.43;;;2.57;;
55222;SDS011;41090;48.632;12.428;2023-03-23T15:19:05;5.10;;;2.43;;
55222;SDS011;41090;48.632;12.428;2023-03-23T15:21:35;4.83;;;2.20;;
55222;SDS011;41090;48.632;12.428;2023-03-23T15:24:01;4.97;;;3.17;;
55222;SDS011;41090;48.632;12.428;2023-03-23T15:26:33;2.83;;;2.20;;
55222;SDS011;41090;48.632;12.428;2023-03-23T15:31:31;4.57;;;2.40;;
55222;SDS011;41090;48.632;12.428;2023-03-23T15:33:58;7.07;;;3.10;;
55222;SDS011;41090;48.632;12.428;2023-03-23T15:36:24;3.60;;;3.30;;
55222;SDS011;41090;48.632;12.428;2023-03-23T15:38:49;4.00;;;2.60;;
55222;SDS011;41090;48.632;12.428;2023-03-23T15:41:48;3.73;;;2.70;;
55222;SDS011;41090;48.632;12.428;2023-03-23T15:44:10;3.63;;;2.30;;
55222;SDS011;41090;48.632;12.428;2023-03-23T15:46:38;2.23;;;2.03;;
55222;SDS011;41090;48.632;12.428;2023-03-23T15:49:12;2.60;;;2.10;;
55222;SDS011;41090;48.632;12.428;2023-03-23T15:51:38;3.03;;;2.10;;
55222;SDS011;41090;48.632;12.428;2023-03-23T15:54:07;4.60;;;2.37;;
55222;SDS011;41090;48.632;12.428;2023-03-23T15:56:33;2.60;;;2.30;;
55222;SDS011;41090;48.632;12.428;2023-03-23T15:58:59;2.67;;;2.00;;
55222;SDS011;41090;48.632;12.428;2023-03-23T16:01:27;3.63;;;2.00;;
55222;SDS011;41090;48.632;12.428;2023-03-23T16:06:19;4.70;;;2.27;;
55222;SDS011;41090;48.632;12.428;2023-03-23T16:08:45;3.60;;;2.20;;
55222;SDS011;41090;48.632;12.428;2023-03-23T16:11:11;2.63;;;2.10;;
55222;SDS011;41090;48.632;12.428;2023-03-23T16:13:36;2.30;;;2.10;;
55222;SDS011;41090;48.632;12.428;2023-03-23T16:16:02;3.53;;;2.27;;
55222;SDS011;41090;48.632;12.428;2023-03-23T16:20:58;4.23;;;3.00;;
55222;SDS011;41090;48.632;12.428;2023-03-23T16:23:23;4.63;;;3.00;;
55222;SDS011;41090;48.632;12.428;2023-03-23T16:25:48;3.30;;;3.00;;
55222;SDS011;41090;48.632;12.428;2023-03-23T16:28:16;3.87;;;2.80;;
55222;SDS011;41090;48.632;12.428;2023-03-23T16:30:42;3.53;;;2.63;;
55222;SDS011;41090;48.632;12.428;2023-03-23T16:33:08;3.47;;;2.70;;
55222;SDS011;41090;48.632;12.428;2023-03-23T16:35:34;3.90;;;2.60;;
55222;SDS011;41090;48.632;12.428;2023-03-23T16:40:31;5.27;;;4.43;;